sensor_id;sensor_type;location;lat;lon;timestamp;temperature;humidity
8988;DHT22;4529;51.360;12.474;2023-06-22T00:02:54;20.40;99.90
8988;DHT22;4529;51.360;12.474;2023-06-22T00:07:57;20.40;99.90
8988;DHT22;4529;51.360;12.474;2023-06-22T00:13:00;20.30;99.90
8988;DHT22;4529;51.360;12.474;2023-06-22T00:18:05;20.30;99.90
8988;DHT22;4529;51.360;12.474;2023-06-22T00:23:07;20.30;99.90
8988;DHT22;4529;51.360;12.474;2023-06-22T00:28:11;20.20;99.90
8988;DHT22;4529;51.360;12.474;2023-06-22T00:33:14;20.20;99.90
8988;DHT22;4529;51.360;12.474;2023-06-22T00:38:18;20.20;99.90
8988;DHT22;4529;51.360;12.474;2023-06-22T00:43:21;20.10;99.90
8988;DHT22;4529;51.360;12.474;2023-06-22T00:48:25;20.10;99.90
8988;DHT22;4529;51.360;12.474;2023-06-22T00:53:29;20.10;99.90
8988;DHT22;4529;51.360;12.474;2023-06-22T00:58:32;19.90;99.90
8988;DHT22;4529;51.360;12.474;2023-06-22T01:03:36;19.80;99.90
8988;DHT22;4529;51.360;12.474;2023-06-22T01:08:51;19.80;99.90
8988;DHT22;4529;51.360;12.474;2023-06-22T01:14:12;19.80;99.90
8988;DHT22;4529;51.360;12.474;2023-06-22T01:19:45;19.70;99.90
8988;DHT22;4529;51.360;12.474;2023-06-22T01:25:26;19.70;99.90
8988;DHT22;4529;51.360;12.474;2023-06-22T01:30:25;19.70;99.90
8988;DHT22;4529;51.360;12.474;2023-06-22T01:35:28;19.70;99.90
8988;DHT22;4529;51.360;12.474;2023-06-22T01:40:32;19.60;99.90
8988;DHT22;4529;51.360;12.474;2023-06-22T01:45:36;19.50;99.90
8988;DHT22;4529;51.360;12.474;2023-06-22T01:50:40;19.60;99.90
8988;DHT22;4529;51.360;12.474;2023-06-22T01:55:44;19.50;99.90
8988;DHT22;4529;51.360;12.474;2023-06-22T02:00:53;19.50;99.90
8988;DHT22;4529;51.360;12.474;2023-06-22T02:06:03;19.40;99.90
8988;DHT22;4529;51.360;12.474;2023-06-22T02:11:04;19.40;99.90
8988;DHT22;4529;51.360;12.474;2023-06-22T02:16:07;19.40;99.90
8988;DHT22;4529;51.360;12.474;2023-06-22T02:21:11;19.40;99.90
8988;DHT22;4529;51.360;12.474;2023-06-22T02:26:16;19.30;99.90
8988;DHT22;4529;51.360;12.474;2023-06-22T02:31:18;19.30;99.90
8988;DHT22;4529;51.360;12.474;2023-06-22T02:36:21;19.10;99.90
8988;DHT22;4529;51.360;12.474;2023-06-22T02:41:25;19.10;99.90
8988;DHT22;4529;51.360;12.474;2023-06-22T02:46:28;19.20;99.90
8988;DHT22;4529;51.360;12.474;2023-06-22T02:51:33;19.10;99.90
8988;DHT22;4529;51.360;12.474;2023-06-22T02:56:35;19.10;99.90
8988;DHT22;4529;51.360;12.474;2023-06-22T03:01:39;19.10;99.90
8988;DHT22;4529;51.360;12.474;2023-06-22T03:06:43;19.10;99.90
8988;DHT22;4529;51.360;12.474;2023-06-22T03:11:47;19.10;99.90
8988;DHT22;4529;51.360;12.474;2023-06-22T03:16:51;19.10;99.90
8988;DHT22;4529;51.360;12.474;2023-06-22T03:21:54;19.10;99.90
8988;DHT22;4529;51.360;12.474;2023-06-22T03:26:58;19.20;99.90
8988;DHT22;4529;51.360;12.474;2023-06-22T03:32:01;19.10;99.90
8988;DHT22;4529;51.360;12.474;2023-06-22T03:37:05;19.20;99.90
8988;DHT22;4529;51.360;12.474;2023-06-22T03:42:08;19.20;99.90
8988;DHT22;4529;51.360;12.474;2023-06-22T03:47:12;19.30;99.90
8988;DHT22;4529;51.360;12.474;2023-06-22T03:52:16;19.30;99.90
8988;DHT22;4529;51.360;12.474;2023-06-22T03:57:20;19.40;99.90
8988;DHT22;4529;51.360;12.474;2023-06-22T04:02:24;19.50;99.90
8988;DHT22;4529;51.360;12.474;2023-06-22T04:07:28;19.40;99.90
8988;DHT22;4529;51.360;12.474;2023-06-22T04:12:31;19.50;99.90
8988;DHT22;4529;51.360;12.474;2023-06-22T04:17:34;19.50;99.90
8988;DHT22;4529;51.360;12.474;2023-06-22T04:22:38;19.60;99.90
8988;DHT22;4529;51.360;12.474;2023-06-22T04:27:41;19.80;99.90
8988;DHT22;4529;51.360;12.474;2023-06-22T04:32:45;19.90;99.90
8988;DHT22;4529;51.360;12.474;2023-06-22T04:37:48;20.10;99.90
8988;DHT22;4529;51.360;12.474;2023-06-22T04:42:53;20.30;99.90
8988;DHT22;4529;51.360;12.474;2023-06-22T04:47:57;20.50;99.90
8988;DHT22;4529;51.360;12.474;2023-06-22T04:53:01;20.60;99.90
8988;DHT22;4529;51.360;12.474;2023-06-22T04:58:04;20.60;99.90
8988;DHT22;4529;51.360;12.474;2023-06-22T05:03:08;20.70;99.90
8988;DHT22;4529;51.360;12.474;2023-06-22T05:08:11;20.70;99.90
8988;DHT22;4529;51.360;12.474;2023-06-22T05:13:15;20.80;99.90
8988;DHT22;4529;51.360;12.474;2023-06-22T05:18:18;20.80;99.90
8988;DHT22;4529;51.360;12.474;2023-06-22T05:23:22;20.70;99.90
8988;DHT22;4529;51.360;12.474;2023-06-22T05:28:26;20.90;99.90
8988;DHT22;4529;51.360;12.474;2023-06-22T05:33:31;21.30;99.90
8988;DHT22;4529;51.360;12.474;2023-06-22T05:38:35;21.50;99.90
8988;DHT22;4529;51.360;12.474;2023-06-22T05:43:38;21.50;99.90
8988;DHT22;4529;51.360;12.474;2023-06-22T05:48:42;21.60;99.90
8988;DHT22;4529;51.360;12.474;2023-06-22T05:53:45;21.70;99.90
8988;DHT22;4529;51.360;12.474;2023-06-22T05:58:49;22.10;99.90
8988;DHT22;4529;51.360;12.474;2023-06-22T06:03:53;22.50;99.90
8988;DHT22;4529;51.360;12.474;2023-06-22T06:08:58;22.90;99.90
8988;DHT22;4529;51.360;12.474;2023-06-22T06:14:02;23.00;99.90
8988;DHT22;4529;51.360;12.474;2023-06-22T06:19:05;23.00;99.90
8988;DHT22;4529;51.360;12.474;2023-06-22T06:24:09;23.20;99.90
8988;DHT22;4529;51.360;12.474;2023-06-22T06:29:12;23.40;99.90
8988;DHT22;4529;51.360;12.474;2023-06-22T06:34:15;23.80;99.90
8988;DHT22;4529;51.360;12.474;2023-06-22T06:39:19;23.90;99.90
8988;DHT22;4529;51.360;12.474;2023-06-22T06:44:22;23.80;99.90
8988;DHT22;4529;51.360;12.474;2023-06-22T06:49:26;23.90;99.90
8988;DHT22;4529;51.360;12.474;2023-06-22T06:54:29;23.90;99.90
8988;DHT22;4529;51.360;12.474;2023-06-22T06:59:33;24.00;99.90
8988;DHT22;4529;51.360;12.474;2023-06-22T07:04:36;24.20;99.90
8988;DHT22;4529;51.360;12.474;2023-06-22T07:09:40;24.50;99.90
8988;DHT22;4529;51.360;12.474;2023-06-22T07:14:44;25.00;99.90
8988;DHT22;4529;51.360;12.474;2023-06-22T07:19:48;25.50;99.90
8988;DHT22;4529;51.360;12.474;2023-06-22T07:24:52;25.40;99.90
8988;DHT22;4529;51.360;12.474;2023-06-22T07:29:56;25.50;99.90
8988;DHT22;4529;51.360;12.474;2023-06-22T07:35:00;25.70;99.90
8988;DHT22;4529;51.360;12.474;2023-06-22T07:40:04;25.70;99.90
8988;DHT22;4529;51.360;12.474;2023-06-22T07:45:08;26.70;99.90
8988;DHT22;4529;51.360;12.474;2023-06-22T07:50:12;26.70;99.90
8988;DHT22;4529;51.360;12.474;2023-06-22T07:55:15;26.90;99.90
8988;DHT22;4529;51.360;12.474;2023-06-22T08:00:19;27.20;99.90
8988;DHT22;4529;51.360;12.474;2023-06-22T08:05:22;27.20;99.90
8988;DHT22;4529;51.360;12.474;2023-06-22T08:10:26;27.40;99.90
8988;DHT22;4529;51.360;12.474;2023-06-22T08:15:29;27.60;99.90
8988;DHT22;4529;51.360;12.474;2023-06-22T08:20:32;27.90;99.90
8988;DHT22;4529;51.360;12.474;2023-06-22T08:25:36;28.10;99.90
8988;DHT22;4529;51.360;12.474;2023-06-22T08:30:39;28.20;99.90
8988;DHT22;4529;51.360;12.474;2023-06-22T08:35:43;28.30;99.90
8988;DHT22;4529;51.360;12.474;2023-06-22T08:40:46;28.60;99.90
8988;DHT22;4529;51.360;12.474;2023-06-22T08:45:50;28.70;99.90
8988;DHT22;4529;51.360;12.474;2023-06-22T08:50:53;28.50;99.90
8988;DHT22;4529;51.360;12.474;2023-06-22T08:55:57;28.40;99.90
8988;DHT22;4529;51.360;12.474;2023-06-22T09:01:00;28.20;99.90
8988;DHT22;4529;51.360;12.474;2023-06-22T09:06:05;28.40;99.90
8988;DHT22;4529;51.360;12.474;2023-06-22T09:11:08;28.40;99.90
8988;DHT22;4529;51.360;12.474;2023-06-22T09:16:12;28.60;99.90
8988;DHT22;4529;51.360;12.474;2023-06-22T09:21:16;28.70;99.90
8988;DHT22;4529;51.360;12.474;2023-06-22T09:26:20;28.70;99.90
8988;DHT22;4529;51.360;12.474;2023-06-22T09:31:25;28.80;99.90
8988;DHT22;4529;51.360;12.474;2023-06-22T09:36:28;28.80;99.90
8988;DHT22;4529;51.360;12.474;2023-06-22T09:41:31;28.90;99.90
8988;DHT22;4529;51.360;12.474;2023-06-22T09:46:35;29.00;99.90
8988;DHT22;4529;51.360;12.474;2023-06-22T09:51:38;29.10;99.90
8988;DHT22;4529;51.360;12.474;2023-06-22T09:56:42;29.20;99.90
8988;DHT22;4529;51.360;12.474;2023-06-22T10:01:45;29.20;99.90
8988;DHT22;4529;51.360;12.474;2023-06-22T10:06:49;29.10;99.90
8988;DHT22;4529;51.360;12.474;2023-06-22T10:11:52;29.20;99.90
8988;DHT22;4529;51.360;12.474;2023-06-22T10:16:56;29.40;99.90
8988;DHT22;4529;51.360;12.474;2023-06-22T10:22:00;29.10;99.90
8988;DHT22;4529;51.360;12.474;2023-06-22T10:27:04;28.80;99.90
8988;DHT22;4529;51.360;12.474;2023-06-22T10:32:08;28.80;99.90
8988;DHT22;4529;51.360;12.474;2023-06-22T10:37:11;29.00;99.90
8988;DHT22;4529;51.360;12.474;2023-06-22T10:42:15;29.10;99.90
8988;DHT22;4529;51.360;12.474;2023-06-22T10:47:20;29.10;99.90
8988;DHT22;4529;51.360;12.474;2023-06-22T10:52:23;29.10;99.90
8988;DHT22;4529;51.360;12.474;2023-06-22T10:57:27;29.20;99.90
8988;DHT22;4529;51.360;12.474;2023-06-22T11:02:41;29.20;99.90
8988;DHT22;4529;51.360;12.474;2023-06-22T11:07:44;29.50;99.90
8988;DHT22;4529;51.360;12.474;2023-06-22T11:12:48;29.70;99.90
8988;DHT22;4529;51.360;12.474;2023-06-22T11:17:51;29.70;99.90
8988;DHT22;4529;51.360;12.474;2023-06-22T11:22:55;29.90;99.90
8988;DHT22;4529;51.360;12.474;2023-06-22T11:27:58;29.80;99.90
8988;DHT22;4529;51.360;12.474;2023-06-22T11:33:02;29.90;99.90
8988;DHT22;4529;51.360;12.474;2023-06-22T11:38:06;29.60;99.90
8988;DHT22;4529;51.360;12.474;2023-06-22T11:43:10;29.30;99.90
8988;DHT22;4529;51.360;12.474;2023-06-22T11:48:14;29.20;99.90
8988;DHT22;4529;51.360;12.474;2023-06-22T11:53:17;29.60;99.90
8988;DHT22;4529;51.360;12.474;2023-06-22T11:58:21;30.00;99.90
8988;DHT22;4529;51.360;12.474;2023-06-22T12:03:24;30.10;99.90
8988;DHT22;4529;51.360;12.474;2023-06-22T12:08:28;29.90;99.90
8988;DHT22;4529;51.360;12.474;2023-06-22T12:13:31;30.00;99.90
8988;DHT22;4529;51.360;12.474;2023-06-22T12:18:35;30.30;99.90
8988;DHT22;4529;51.360;12.474;2023-06-22T12:23:39;30.30;99.90
8988;DHT22;4529;51.360;12.474;2023-06-22T12:28:43;30.30;99.90
8988;DHT22;4529;51.360;12.474;2023-06-22T12:33:46;30.30;99.90
8988;DHT22;4529;51.360;12.474;2023-06-22T12:38:50;30.30;99.90
8988;DHT22;4529;51.360;12.474;2023-06-22T12:43:53;30.20;99.90
8988;DHT22;4529;51.360;12.474;2023-06-22T12:48:57;30.00;99.90
8988;DHT22;4529;51.360;12.474;2023-06-22T12:54:00;30.20;99.90
8988;DHT22;4529;51.360;12.474;2023-06-22T12:59:04;30.30;99.90
8988;DHT22;4529;51.360;12.474;2023-06-22T13:04:07;30.40;99.90
8988;DHT22;4529;51.360;12.474;2023-06-22T13:09:11;30.30;99.90
8988;DHT22;4529;51.360;12.474;2023-06-22T13:14:14;30.40;99.90
8988;DHT22;4529;51.360;12.474;2023-06-22T13:19:18;30.40;99.90
8988;DHT22;4529;51.360;12.474;2023-06-22T13:24:21;30.00;99.90
8988;DHT22;4529;51.360;12.474;2023-06-22T13:29:25;30.00;99.90
8988;DHT22;4529;51.360;12.474;2023-06-22T13:34:28;30.20;99.90
8988;DHT22;4529;51.360;12.474;2023-06-22T13:39:32;30.40;99.90
8988;DHT22;4529;51.360;12.474;2023-06-22T13:44:36;30.40;99.90
8988;DHT22;4529;51.360;12.474;2023-06-22T13:49:41;30.50;99.90
8988;DHT22;4529;51.360;12.474;2023-06-22T13:54:44;30.50;99.90
8988;DHT22;4529;51.360;12.474;2023-06-22T13:59:48;30.60;99.90
8988;DHT22;4529;51.360;12.474;2023-06-22T14:04:54;30.40;99.90
8988;DHT22;4529;51.360;12.474;2023-06-22T14:09:58;30.20;99.90
8988;DHT22;4529;51.360;12.474;2023-06-22T14:15:01;30.40;99.90
8988;DHT22;4529;51.360;12.474;2023-06-22T14:20:05;30.60;99.90
8988;DHT22;4529;51.360;12.474;2023-06-22T14:25:08;30.80;99.90
8988;DHT22;4529;51.360;12.474;2023-06-22T14:30:12;30.80;99.90
8988;DHT22;4529;51.360;12.474;2023-06-22T14:35:16;30.70;99.90
8988;DHT22;4529;51.360;12.474;2023-06-22T14:40:20;30.70;99.90
8988;DHT22;4529;51.360;12.474;2023-06-22T14:45:24;30.80;99.90
8988;DHT22;4529;51.360;12.474;2023-06-22T14:50:28;30.80;99.90
8988;DHT22;4529;51.360;12.474;2023-06-22T14:55:31;30.70;99.90
8988;DHT22;4529;51.360;12.474;2023-06-22T15:00:34;30.80;99.90
8988;DHT22;4529;51.360;12.474;2023-06-22T15:05:38;31.00;99.90
8988;DHT22;4529;51.360;12.474;2023-06-22T15:10:41;31.00;99.90
8988;DHT22;4529;51.360;12.474;2023-06-22T15:15:48;31.00;99.90
8988;DHT22;4529;51.360;12.474;2023-06-22T15:20:52;30.80;99.90
8988;DHT22;4529;51.360;12.474;2023-06-22T15:25:56;30.40;99.90
8988;DHT22;4529;51.360;12.474;2023-06-22T15:31:00;30.40;99.90
8988;DHT22;4529;51.360;12.474;2023-06-22T15:36:03;30.60;99.90
8988;DHT22;4529;51.360;12.474;2023-06-22T15:41:06;30.70;99.90
8988;DHT22;4529;51.360;12.474;2023-06-22T15:46:10;30.80;99.90
8988;DHT22;4529;51.360;12.474;2023-06-22T15:51:13;30.90;99.90
8988;DHT22;4529;51.360;12.474;2023-06-22T15:56:17;30.70;99.90
8988;DHT22;4529;51.360;12.474;2023-06-22T16:01:25;30.80;99.90
8988;DHT22;4529;51.360;12.474;2023-06-22T16:06:28;30.80;99.90
8988;DHT22;4529;51.360;12.474;2023-06-22T16:11:32;30.80;99.90
8988;DHT22;4529;51.360;12.474;2023-06-22T16:16:35;30.40;99.90
8988;DHT22;4529;51.360;12.474;2023-06-22T16:21:39;30.30;99.90
8988;DHT22;4529;51.360;12.474;2023-06-22T16:26:43;29.90;99.90
8988;DHT22;4529;51.360;12.474;2023-06-22T16:31:47;29.70;99.90
8988;DHT22;4529;51.360;12.474;2023-06-22T16:36:51;29.60;99.90
8988;DHT22;4529;51.360;12.474;2023-06-22T16:41:55;29.50;99.90
8988;DHT22;4529;51.360;12.474;2023-06-22T16:46:59;29.50;99.90
8988;DHT22;4529;51.360;12.474;2023-06-22T16:52:03;29.40;99.90
8988;DHT22;4529;51.360;12.474;2023-06-22T16:57:06;29.40;99.90
8988;DHT22;4529;51.360;12.474;2023-06-22T17:02:15;29.30;99.90
8988;DHT22;4529;51.360;12.474;2023-06-22T17:07:17;29.20;99.90
8988;DHT22;4529;51.360;12.474;2023-06-22T17:12:20;29.20;99.90
8988;DHT22;4529;51.360;12.474;2023-06-22T17:17:24;28.90;99.90
8988;DHT22;4529;51.360;12.474;2023-06-22T17:22:28;29.00;99.90
8988;DHT22;4529;51.360;12.474;2023-06-22T17:27:32;28.90;99.90
8988;DHT22;4529;51.360;12.474;2023-06-22T17:32:34;28.90;99.90
8988;DHT22;4529;51.360;12.474;2023-06-22T17:37:55;28.90;99.90
8988;DHT22;4529;51.360;12.474;2023-06-22T17:43:04;28.80;99.90
8988;DHT22;4529;51.360;12.474;2023-06-22T17:48:07;28.80;99.90
8988;DHT22;4529;51.360;12.474;2023-06-22T17:53:12;28.60;99.90
8988;DHT22;4529;51.360;12.474;2023-06-22T17:58:15;28.60;99.90
8988;DHT22;4529;51.360;12.474;2023-06-22T18:03:23;28.50;99.90
8988;DHT22;4529;51.360;12.474;2023-06-22T18:08:25;28.30;99.90
8988;DHT22;4529;51.360;12.474;2023-06-22T18:13:28;28.40;99.90
8988;DHT22;4529;51.360;12.474;2023-06-22T18:18:32;28.30;99.90
8988;DHT22;4529;51.360;12.474;2023-06-22T18:23:35;28.30;99.90
8988;DHT22;4529;51.360;12.474;2023-06-22T18:28:39;28.40;99.90
8988;DHT22;4529;51.360;12.474;2023-06-22T18:33:43;28.50;99.90
8988;DHT22;4529;51.360;12.474;2023-06-22T18:38:46;28.50;99.90
8988;DHT22;4529;51.360;12.474;2023-06-22T18:43:52;28.60;99.90
8988;DHT22;4529;51.360;12.474;2023-06-22T18:49:00;28.50;99.90
8988;DHT22;4529;51.360;12.474;2023-06-22T18:54:03;28.50;99.90
8988;DHT22;4529;51.360;12.474;2023-06-22T18:59:11;28.50;99.90
8988;DHT22;4529;51.360;12.474;2023-06-22T19:04:15;28.50;99.90
8988;DHT22;4529;51.360;12.474;2023-06-22T19:09:19;28.40;99.90
8988;DHT22;4529;51.360;12.474;2023-06-22T19:14:22;28.40;99.90
8988;DHT22;4529;51.360;12.474;2023-06-22T19:19:25;28.30;99.90
8988;DHT22;4529;51.360;12.474;2023-06-22T19:24:46;28.30;99.90
8988;DHT22;4529;51.360;12.474;2023-06-22T19:29:35;28.20;99.90
8988;DHT22;4529;51.360;12.474;2023-06-22T19:34:42;28.20;99.90
8988;DHT22;4529;51.360;12.474;2023-06-22T19:39:45;28.10;99.90
8988;DHT22;4529;51.360;12.474;2023-06-22T19:44:49;28.00;99.90
8988;DHT22;4529;51.360;12.474;2023-06-22T19:49:59;27.90;99.90
8988;DHT22;4529;51.360;12.474;2023-06-22T19:55:03;27.90;99.90
8988;DHT22;4529;51.360;12.474;2023-06-22T20:00:07;27.80;99.90
8988;DHT22;4529;51.360;12.474;2023-06-22T20:05:11;27.60;99.90
8988;DHT22;4529;51.360;12.474;2023-06-22T20:10:16;27.20;99.90
8988;DHT22;4529;51.360;12.474;2023-06-22T20:15:21;26.50;99.90
8988;DHT22;4529;51.360;12.474;2023-06-22T20:20:25;26.40;99.90
8988;DHT22;4529;51.360;12.474;2023-06-22T20:25:31;26.20;99.90
8988;DHT22;4529;51.360;12.474;2023-06-22T20:30:31;26.00;99.90
8988;DHT22;4529;51.360;12.474;2023-06-22T20:35:34;25.70;99.90
8988;DHT22;4529;51.360;12.474;2023-06-22T20:40:38;25.70;99.90
8988;DHT22;4529;51.360;12.474;2023-06-22T20:45:41;25.70;99.90
8988;DHT22;4529;51.360;12.474;2023-06-22T20:50:45;24.60;99.90
8988;DHT22;4529;51.360;12.474;2023-06-22T20:55:48;23.80;99.90
8988;DHT22;4529;51.360;12.474;2023-06-22T21:06:34;23.10;99.90
8988;DHT22;4529;51.360;12.474;2023-06-22T21:11:37;22.90;99.90
8988;DHT22;4529;51.360;12.474;2023-06-22T21:16:41;22.60;99.90
8988;DHT22;4529;51.360;12.474;2023-06-22T21:21:44;22.40;99.90
8988;DHT22;4529;51.360;12.474;2023-06-22T21:26:48;22.20;99.90
8988;DHT22;4529;51.360;12.474;2023-06-22T21:31:52;22.00;99.90
8988;DHT22;4529;51.360;12.474;2023-06-22T21:36:55;21.80;99.90
8988;DHT22;4529;51.360;12.474;2023-06-22T21:41:59;21.60;99.90
8988;DHT22;4529;51.360;12.474;2023-06-22T21:47:02;21.50;99.90
8988;DHT22;4529;51.360;12.474;2023-06-22T21:52:06;21.30;99.90
8988;DHT22;4529;51.360;12.474;2023-06-22T21:57:09;21.40;99.90
8988;DHT22;4529;51.360;12.474;2023-06-22T22:02:13;21.40;99.90
8988;DHT22;4529;51.360;12.474;2023-06-22T22:07:16;21.60;99.90
8988;DHT22;4529;51.360;12.474;2023-06-22T22:12:20;21.80;99.90
8988;DHT22;4529;51.360;12.474;2023-06-22T22:17:23;21.80;99.90
8988;DHT22;4529;51.360;12.474;2023-06-22T22:22:26;21.90;99.90
8988;DHT22;4529;51.360;12.474;2023-06-22T22:27:30;21.90;99.90
8988;DHT22;4529;51.360;12.474;2023-06-22T22:32:33;21.80;99.90
8988;DHT22;4529;51.360;12.474;2023-06-22T22:37:37;21.80;99.90
8988;DHT22;4529;51.360;12.474;2023-06-22T22:42:40;21.60;99.90
8988;DHT22;4529;51.360;12.474;2023-06-22T22:47:44;21.50;99.90
8988;DHT22;4529;51.360;12.474;2023-06-22T22:52:47;21.50;99.90
8988;DHT22;4529;51.360;12.474;2023-06-22T22:57:51;21.50;99.90
8988;DHT22;4529;51.360;12.474;2023-06-22T23:02:54;21.40;99.90
8988;DHT22;4529;51.360;12.474;2023-06-22T23:07:58;21.40;99.90
8988;DHT22;4529;51.360;12.474;2023-06-22T23:13:01;21.30;99.90
8988;DHT22;4529;51.360;12.474;2023-06-22T23:18:09;21.30;99.90
8988;DHT22;4529;51.360;12.474;2023-06-22T23:23:08;21.30;99.90
8988;DHT22;4529;51.360;12.474;2023-06-22T23:28:12;21.20;99.90
8988;DHT22;4529;51.360;12.474;2023-06-22T23:33:14;21.20;99.90
8988;DHT22;4529;51.360;12.474;2023-06-22T23:38:18;21.20;99.90
8988;DHT22;4529;51.360;12.474;2023-06-22T23:43:21;21.20;99.90
8988;DHT22;4529;51.360;12.474;2023-06-22T23:48:25;21.20;99.90
8988;DHT22;4529;51.360;12.474;2023-06-22T23:53:28;21.20;99.90
8988;DHT22;4529;51.360;12.474;2023-06-22T23:58:32;21.20;99.90
